Prochaines Courses

Connexion

Trail des 3 Forets

TRAIL DES 3 FORETS 20 KM du 24/08/14 (Reelle 20)
Rang Dossard Nom Prénom Temps Cat Rang Cat Ecart Ecart Cat Club Vitesse Km/h Temps au Km
1 114 DUHAMEL ALAIN 01:27:36 V1M 1 00:00:00 00:00:00 TOUQUET TRAIL NATURE 13,699 04:23
2 219 FLIPO QUENTIN 01:28:09 ESM 1 00:00:33 00:00:00 STADE LONGUENESSOIS 13,613 04:24
3 124 SENECHAL JEREMY 01:28:41 SEM 1 00:01:05 00:00:00   13,531 04:26
4 200 NASKRET LUDOVIC 01:28:55 SEM 2 00:01:19 00:00:14 MARCK ATHLON 13,496 04:27
5 34 BREQUEVILLE SAMUEL 01:28:57 V1M 2 00:01:21 00:01:21 TOUQUET TRAIL NATURE 13,491 04:27
6 159 LEFEBVRE JULIEN 01:29:09 SEM 3 00:01:33 00:00:28 JEUNES SAPEUR POMPIER 13,460 04:27
7 81 DUCLOY KEVIN 01:29:19 SEM 4 00:01:43 00:00:38 SAINT MARTIN ATHLETISME 13,435 04:28
8 215 RINGOT BORIS 01:30:36 SEM 5 00:03:00 00:01:55 NON LICENCIE 13,245 04:32
9 130 BARTHELEMY CHRISTIAN 01:30:51 V1M 3 00:03:15 00:03:15 CAP OPALE 13,209 04:33
10 218 FLIPO GREGOIRE 01:31:35 V1M 4 00:03:59 00:03:59 STADE LONGUENESSOIS 13,103 04:35
11 50 FASQUEL DOMINIQUE 01:32:40 V1M 5 00:05:04 00:05:04 OPALE TRAIL NATURE 12,950 04:38
12 210 LENER WILFRIED 01:33:03 SEM 6 00:05:27 00:04:22 TRAIL BLARINGHEM 12,896 04:39
13 115 DUFRESNE FABIEN 01:33:14 SEM 7 00:05:38 00:04:33 NON LICENCIE 12,871 04:40
14 199 DRANSART ADRIEN 01:33:51 SEM 8 00:06:15 00:05:10 BERCK OPALE SUD TRIATHLON 12,786 04:42
15 180 LEFEVRE KEVIN 01:34:25 SEM 9 00:06:49 00:05:44 ATHLETISME CLUB OUTREAU 12,710 04:43
16 1 DENIS XAVIER 01:34:47 V1M 6 00:07:11 00:07:11 ES NANTERRE TRIATHLON 12,660 04:44
17 189 CALESSE FRANCK 01:35:01 V1M 7 00:07:25 00:07:25 TEAM RAIDLIGHT 12,629 04:45
18 37 BRUNET MICKAEL 01:35:30 SEM 10 00:07:54 00:06:49 BLANC NEZ TRIATHLON 12,565 04:46
19 129 HANQUEZ RODRIGUE 01:35:39 SEM 11 00:08:03 00:06:58 CAP OPALE 12,546 04:47
20 176 REMBUR DANIEL 01:35:43 V2M 1 00:08:07 00:00:00 TOUQUET OPALE ATHLETISME 12,537 04:47
21 48 DEPLECHIN DAVID 01:36:07 SEM 12 00:08:31 00:07:26 TEAM TRAIL 62 12,485 04:48
22 207 GONON BERTRAND 01:37:33 SEM 13 00:09:57 00:08:52 NON LICENCIE 12,301 04:53
23 187 MANTEZ OLIVIER 01:37:40 V1M 8 00:10:04 00:10:04 A.S. MARCK 12,287 04:53
24 92 ISAERT CHRISTOPHE 01:38:36 SEM 14 00:11:00 00:09:55 TEAM ALTRA 12,170 04:56
25 116 DULIEU ANTHONY 01:39:08 SEM 15 00:11:32 00:10:27 CLUB KALENJI 12,105 04:57
26 209 GONGORA SEBASTIEN 01:39:10 V1M 9 00:11:34 00:11:34 TRAIL BLARINGHEM 12,101 04:58
27 197 DEBOIS TONY 01:39:31 V1M 10 00:11:55 00:11:55 MARCK ATHLON 12,058 04:59
28 250 GOURDIN ERIC 01:40:06 V1M 11 00:12:30 00:12:30 ATHLETISME CLUB OUTREAU 11,988 05:00
29 196 BARBIER LUDOVIC 01:40:16 SEM 16 00:12:40 00:11:35 BLARINGHEM TRAIL 11,968 05:01
30 54 BOUDRINGHIN JEAN-MARC 01:40:24 V1M 12 00:12:48 00:12:48 JOGGING CLUB LICQUOIS 11,952 05:01
31 153 DOCQUOIS FREDERIC 01:40:40 V1M 13 00:13:04 00:13:04 LE DRAPEAU 11,921 05:02
32 136 LECENDRE OLIVIER 01:40:46 SEM 17 00:13:10 00:12:05 OPALE ORIENTATION 11,909 05:02
33 36 LEVEL FABIEN 01:41:01 SEM 18 00:13:25 00:12:20 ATHLETIQUE CLUB CAPELLOIS 11,879 05:03
34 225 PALFART DAVID 01:41:06 V1M 14 00:13:30 00:13:30 ES ARQUES 11,869 05:03
35 118 FRANCOIS GILBERT 01:41:31 V2M 2 00:13:55 00:05:48 MARCK ATHLON 11,821 05:05
36 113 COURONNEL ROMAIN 01:41:47 JUM 1 00:14:11 00:00:00 TOUQUET TRAIL NATURE 11,790 05:05
37 23 VANDEWALLE THOMAS 01:42:03 SEM 19 00:14:27 00:13:22 NON LICENCIE 11,759 05:06
38 243 SOHIER STEPHANE 01:42:08 SEM 20 00:14:32 00:13:27 COURIR A GRAVELINES 11,749 05:06
39 49 GODART JEAN-CHRISTOPHE 01:42:21 V1M 15 00:14:45 00:14:45 NON LICENCIE 11,724 05:07
40 173 ELIE LAURENT 01:42:30 V1M 16 00:14:54 00:14:54 CO EU BRESLE 11,707 05:07
41 99 MARCOURT GEOFFRAY 01:42:34 SEM 21 00:14:58 00:13:53   11,700 05:08
42 123 OLLEVILLE EMMANUEL 01:42:51 SEM 22 00:15:15 00:14:10   11,667 05:09
43 172 VASSEUR DIMITRI 01:43:04 V1M 17 00:15:28 00:15:28 CALOTTERIE 11,643 05:09
44 72 RAY SAMUEL 01:43:16 V1M 18 00:15:40 00:15:40 NON LICENCIE 11,620 05:10
45 206 CABY RAPHAEL 01:43:49 V1M 19 00:16:13 00:16:13 WIMEREUX RUNNING CLUB 11,559 05:11
46 88 GRESSIER OLIVIER 01:43:55 V1M 20 00:16:19 00:16:19 FREVENT OLYMPIC CLUB 11,548 05:12
47 27 SELLIER CHRISTOPHE 01:44:16 SEM 23 00:16:40 00:15:35 OPALE TRAIL NATURE 11,509 05:13
48 213 LENER MARTIN 01:44:38 SEM 24 00:17:02 00:15:57 TRAIL BLARINGHEM 11,469 05:14
49 46 VILLIEZ MORGAN 01:44:50 SEM 25 00:17:14 00:16:09   11,447 05:15
50 167 BOUTTE DOMINIQUE 01:45:03 V2M 3 00:17:27 00:09:20 ASD HESDIN 11,423 05:15
51 87 DELAVIEZ JEAN-MARC 01:45:11 V2M 4 00:17:35 00:09:28 FREVENT OLYMPIC CLUB 11,409 05:16
52 177 FAURE ARNAUD 01:45:16 V1M 21 00:17:40 00:17:40 LYS AA TRI CLUB 11,400 05:16
53 89 DELATTRE DAVID 01:45:42 V1M 22 00:18:06 00:18:06   11,353 05:17
54 73 BARROIS CELINE 01:46:14 SEF 1 00:18:38 00:00:00 ATHLETIQUE CLUB CAPELLOIS 11,296 05:19
55 145 FORESTIER ALAIN 01:47:20 V1M 23 00:19:44 00:19:44 COLEMBERT 11,180 05:22
56 148 ISAERT LUDOVIC 01:47:50 SEM 26 00:20:14 00:19:09 GRAVELINES 11,128 05:24
57 238 LANSCOTTE JOEL 01:48:20 V1M 24 00:20:44 00:20:44 PATRIOTES DE GUINES 11,077 05:25
58 162 SCHRIVE DAVID 01:48:57 V1M 25 00:21:21 00:21:21 NON LICENCIE 11,014 05:27
59 100 HARDOIN JEAN-FRANCOIS 01:49:30 V1M 26 00:21:54 00:21:54 SAINT MARTIN ATHLETISME 10,959 05:28
60 133 CHAMPION BRUNO 01:49:45 V1M 27 00:22:09 00:22:09 NON LICENCIE 10,934 05:29
61 126 KUSCHNICK FABRICE 01:49:54 V1M 28 00:22:18 00:22:18   10,919 05:30
62 57 CHARTAUX RAPHAEL 01:50:00 V1M 29 00:22:24 00:22:24 CS NESLES 10,909 05:30
63 75 NOEL DAVID 01:50:06 V1M 30 00:22:30 00:22:30 ATHLETIQUE CLUB CAPELLOIS 10,899 05:30
64 154 LELEU LAETITIA 01:50:19 SEF 2 00:22:43 00:04:05 LE DRAPEAU 10,878 05:31
65 79 BRIEZ ARNAUD 01:50:31 SEM 27 00:22:55 00:21:50 ATHLETIQUE CLUB CAPELLOIS 10,858 05:32
66 253 BRUNEL STEPHANE 01:50:37 V1M 31 00:23:01 00:23:01 ATHLETISME CLUB OUTREAU 10,848 05:32
67 60 ROCHES RENAUD 01:51:02 V1M 32 00:23:26 00:23:26   10,808 05:33
68 191 DUMONT ALEXIS 01:51:13 SEM 28 00:23:37 00:22:32 NON LICENCIE 10,790 05:34
69 69 DELLIAUX EMMANUEL 01:51:25 SEM 29 00:23:49 00:22:44 NON LICENCIE 10,770 05:34
70 125 HEMART WILLIAM 01:52:01 SEM 30 00:24:25 00:23:20 COB 10,713 05:36
71 169 PEREZ CARLOS 01:52:42 V1M 33 00:25:06 00:25:06 ASD HESDIN 10,648 05:38
72 9 BAHEUX JEAN MICHEL 01:52:52 V3M 1 00:25:16 00:00:00 NON LICENCIE 10,632 05:39
73 227 BRUNET DENIS 01:53:23 V3M 2 00:25:47 00:00:31 JOGGING CLUB LICQUOIS 10,584 05:40
74 65 BRIDAULT JEAN-FRANCOIS 01:53:26 SEM 31 00:25:50 00:24:45 WISSANT 10,579 05:40
75 165 DUBOIS STEPHANE 01:53:34 SEM 32 00:25:58 00:24:53 AC CULTURELLE ARC INTERNATIONAL 10,566 05:41
76 247 LEFRANC OLIVIER 01:54:01 V1M 34 00:26:25 00:26:25 SAINT MARTIN ATHLETISME 10,525 05:42
77 251 LEJEUNE FRANCK 01:54:01 V1M 35 00:26:25 00:26:25 NON LICENCIE 10,525 05:42
78 53 LONGUET FLORENT 01:54:16 SEM 33 00:26:40 00:25:35 NON LICENCIE 10,502 05:43
79 138 BALY SYLVAIN 01:54:52 SEM 34 00:27:16 00:26:11 NON LICENCIE 10,447 05:45
80 204 BOUVOT CYRILLE 01:54:58 SEM 35 00:27:22 00:26:17 NON LICENCIE 10,438 05:45
81 202 RYCKEWAERT XAVIER 01:55:11 SEM 36 00:27:35 00:26:30 WIMEREUX RUNNING CLUB 10,418 05:46
82 246 FRANCOIS FREDERIC 01:55:31 V1M 36 00:27:55 00:27:55 NON LICENCIE 10,388 05:47
83 185 DEMARET LUDWIG 01:55:33 SEM 37 00:27:57 00:26:52 NON LICENCIE 10,385 05:47
84 112 MAHIEUX JEAN-LUC 01:55:41 V2M 5 00:28:05 00:19:58 NON LICENCIE 10,373 05:47
85 35 WIERRE LAURENT 01:55:52 SEM 38 00:28:16 00:27:11 ATHLETIQUE CLUB CAPELLOIS 10,357 05:48
86 212 B'AHEU ROMAIN 01:55:52 SEM 39 00:28:16 00:27:11 NON LICENCIE 10,357 05:48
87 231 PLANCKEEL CEDRIC 01:56:12 SEM 40 00:28:36 00:27:31 NON LICENCIE 10,327 05:49
88 201 CARLU MARC 01:56:25 SEM 41 00:28:49 00:27:44 LES COUREURS DES LOUPS BLANCS 10,308 05:49
89 164 GREMONT ROMUALD 01:56:31 V1M 37 00:28:55 00:28:55 CALOTTERIE 10,299 05:50
90 20 GUYOT KENNY 01:57:14 ESM 2 00:29:38 00:29:05 NON LICENCIE 10,236 05:52
91 18 NEMPONT FREDERIC 01:57:15 V1M 38 00:29:39 00:29:39 NON LICENCIE 10,235 05:52
92 208 FLANDRIN GAUTIER 01:58:04 SEM 42 00:30:28 00:29:23 TRAIL BLARINGHEM 10,164 05:54
93 39 FOSSE PHILIPPE 01:58:25 V2M 6 00:30:49 00:22:42   10,134 05:55
94 224 POULET JEAN-LUC 01:59:04 V2M 7 00:31:28 00:23:21 COURIR AU MONT DES CATS 10,078 05:57
95 14 LEMAITRE FABIEN 01:59:14 SEM 43 00:31:38 00:30:33   10,064 05:58
96 98 DEFACHELLES HERVE 01:59:23 V1M 39 00:31:47 00:31:47 NON LICENCIE 10,052 05:58
97 3 DUCROCQ GREGORY 01:59:39 SEM 44 00:32:03 00:30:58 NON LICENCIE 10,029 05:59
98 56 LEROUGE DAVID 01:59:45 V1M 40 00:32:09 00:32:09 C.S. NESLES 10,021 05:59
99 45 RIGAUD ANTHONY 01:59:57 SEM 45 00:32:21 00:31:16 JOG GAZELEC DOUAI 10,004 06:00
100 158 SELINGUE GUILLAUME 02:00:01 SEM 46 00:32:25 00:31:20 JEUNES SAPEUR POMPIER 9,999 06:00
101 24 HAGNERE OLIVIER 02:00:08 V1M 41 00:32:32 00:32:32 SO CALAIS 9,989 06:00
102 150 DEBOVE DAVID 02:00:14 V1M 42 00:32:38 00:32:38 C.S. NESLES 9,981 06:01
103 186 BREQUEVILLE LIONEL 02:00:36 V1M 43 00:33:00 00:33:00 ATHLETIQUE CLUB CAPELLOIS 9,950 06:02
104 78 HOLUIGUE FREDERIC 02:00:36 SEM 47 00:33:00 00:31:55 ATHLETIQUE CLUB CAPELLOIS 9,950 06:02
105 230 MALE MICHAEL 02:01:03 V1M 44 00:33:27 00:33:27 SPORT EVASION DES 2 CAPS 9,913 06:03
106 127 BAILLARD THIERRY 02:01:30 V2M 8 00:33:54 00:25:47 TOUQUET TRAIL NATURE 9,877 06:04
107 222 VANDENBERGUE VALERIE 02:01:55 V1F 1 00:34:19 00:00:00 BERCK A C O 9,843 06:06
108 257 LOEUILLEUX BERTRAND 02:02:21 V2M 9 00:34:45 00:26:38 AMICALE HOSPITALIERS BOULOGNE 9,808 06:07
109 147 ISAERT MARIE 02:02:32 SEF 3 00:34:56 00:16:18 IDI TEAM -GRAVELINES TRIATHLON 9,793 06:08
110 149 TRONET JEREMIE 02:02:33 SEM 48 00:34:57 00:33:52 IDI 9,792 06:08
111 108 BORDEZ FRANCK 02:04:15 V2M 10 00:36:39 00:28:32 SPORT PLUS 9,658 06:13
112 110 FLOURET LAUGIER STEPHANIE 02:04:15 SEF 4 00:36:39 00:18:01 SPORT PLUS 9,658 06:13
113 109 BRIDOUX CHRISTINE 02:04:16 V1F 2 00:36:40 00:02:21 SPORT PLUS 9,657 06:13
114 71 BALY ADRIEN 02:04:16 SEM 49 00:36:40 00:35:35 NON LICENCIE 9,657 06:13
115 228 THOMAS LYDIVINE 02:04:17 SEF 5 00:36:41 00:18:03 NON LICENCIE 9,655 06:13
116 141 DETHOOR DOMINIQUE 02:04:29 V2M 11 00:36:53 00:28:46 COLEMBERT 9,640 06:13
117 254 BAILLY FRANCOIS 02:04:31 SEM 50 00:36:55 00:35:50 NON LICENCIE 9,637 06:14
118 30 GRESSIER YANNICK 02:04:31 V1M 45 00:36:55 00:36:55 LE DRAPEAU 9,637 06:14
119 12 LEFEBVRE STEPHANE 02:04:46 SEM 51 00:37:10 00:36:05   9,618 06:14
120 111 METTIER JEAN-FRANCOIS 02:04:58 V1M 46 00:37:22 00:37:22 SPORT PLUS 9,603 06:15
121 221 DAMETTE GASTON 02:05:14 V1M 47 00:37:38 00:37:38 BERCK A C O 9,582 06:16
122 255 LEROY FABIEN 02:05:15 SEM 52 00:37:39 00:36:34 ATHLETIC CLUB CAPELLOIS 9,581 06:16
123 151 PETA JEANNE ESTELLE 02:05:26 V1F 3 00:37:50 00:03:31 LE DRAPEAU 9,567 06:16
124 258 DELABROYE YANN 02:05:26 V1M 48 00:37:50 00:37:50 ESCAP'AVENTURE 9,567 06:16
125 26 SANDRIN NATHALIE 02:06:37 V1F 4 00:39:01 00:04:42   9,477 06:20
126 229 LECLERCQ CHRISTOPHE 02:06:58 V1M 49 00:39:22 00:39:22 LES FURETS D EIFFAGE 9,451 06:21
127 74 OVION SYLVESTRE 02:07:04 V1M 50 00:39:28 00:39:28 ATHLETIQUE CLUB CAPELLOIS 9,444 06:21
128 242 JACOB JEREMY 02:07:17 SEM 53 00:39:41 00:38:36 NON LICENCIE 9,428 06:22
129 259 FOURDINIER JEROME 02:07:18 V1M 51 00:39:42 00:39:42 NON LICENCIE 9,427 06:22
130 119 COURONNEL BERTRAND 02:07:27 V3M 3 00:39:51 00:14:35 CALOTTERIE 9,415 06:22
131 47 DEPLECHIN LUDIVINE 02:07:29 SEF 6 00:39:53 00:21:15 NON LICENCIE 9,413 06:22
132 214 FERAND CHRISTOPHE 02:07:41 V1M 52 00:40:05 00:40:05 NON LICENCIE 9,398 06:23
133 223 CORDIER HUGUES 02:08:27 SEM 54 00:40:51 00:39:46 NON LICENCIE 9,342 06:25
134 117 LOEUILLIEUX JULIEN 02:09:21 SEM 55 00:41:45 00:40:40 TEAM TRAIL 62 9,277 06:28
135 168 TALLEUX SEBASTIEN 02:09:41 V1M 53 00:42:05 00:42:05 ASD HESDIN 9,253 06:29
136 252 LEPETZ KARINE 02:09:43 V1F 5 00:42:07 00:07:48 NON LICENCIE 9,251 06:29
137 7 HAUDIQUET ELODIE 02:09:43 SEF 7 00:42:07 00:23:29   9,251 06:29
138 181 LABOURDETTE SEBASTIEN 02:10:02 SEM 56 00:42:26 00:41:21 NON LICENCIE 9,228 06:30
139 96 VASSEUR CAROLE 02:10:02 V1F 6 00:42:26 00:08:07 SPORT PLUS 9,228 06:30
140 11 GRIMONPREZ OLIVIER 02:10:11 V1M 54 00:42:35 00:42:35 LYS AA TRI CLUB 9,218 06:31
141 217 KYNDT DANY 02:10:47 V1M 55 00:43:11 00:43:11 NON LICENCIE 9,175 06:32
142 184 RAHMAN ARO 02:10:53 SEM 57 00:43:17 00:42:12 NON LICENCIE 9,168 06:33
143 40 FOURCROY FANNY 02:10:54 V1F 7 00:43:18 00:08:59 NON LICENCIE 9,167 06:33
144 241 FRERE CHRISTELLE 02:11:45 V1F 8 00:44:09 00:09:50 NON LICENCIE 9,108 06:35
145 94 STEC FREDERIC 02:12:08 V1M 56 00:44:32 00:44:32 NON LICENCIE 9,082 06:36
146 220 DAMETTE ODILE 02:12:18 V1F 9 00:44:42 00:10:23 BERCK A C O 9,070 06:37
147 135 THOREL CYRIL 02:12:19 V1M 57 00:44:43 00:44:43 BERCK A C O 9,069 06:37
148 77 HOLUIGUE SABINE 02:12:50 V1F 10 00:45:14 00:10:55 ATHLETIQUE CLUB CAPELLOIS 9,034 06:38
149 82 SIABAS JEAN-MICHEL 02:13:00 V2M 12 00:45:24 00:37:17 SAINT MARTIN ATHLETISME 9,023 06:39
150 5 ROGER SYLVAIN 02:13:08 V1M 58 00:45:32 00:45:32 NON LICENCIE 9,014 06:39
151 132 BLANPAIN DAVID 02:13:45 SEM 58 00:46:09 00:45:04 CAP OPALE 8,972 06:41
152 171 BUCHET DANIEL 02:13:55 V2M 13 00:46:19 00:38:12   8,961 06:42
153 193 POSTA JULIETTE 02:15:13 ESF 1 00:47:37 00:00:00 NON LICENCIE 8,875 06:46
154 160 AZZAOUZ ISSAC 02:15:15 ESM 3 00:47:39 00:47:06 JEUNES SAPEUR POMPIER 8,872 06:46
155 195 DANEL DELPHINE 02:15:48 V1F 11 00:48:12 00:13:53 AUVERS ATHLETISME 8,837 06:47
156 194 DANEL LAURENT 02:15:48 V2M 14 00:48:12 00:40:05 AUVERS ATHLETISME 8,837 06:47
157 157 WALLOIS GERVAIS 02:16:14 SEM 59 00:48:38 00:47:33 JEUNES SAPEUR POMPIER 8,808 06:49
158 51 ROBART FRANCOIS 02:16:31 V2M 15 00:48:55 00:40:48 CS NESLES 8,790 06:50
159 161 DEBOVE JONATHAN 02:16:41 SEM 60 00:49:05 00:48:00 JEUNES SAPEUR POMPIER 8,779 06:50
160 137 VERNEUIL ANNE 02:17:12 SEF 8 00:49:36 00:30:58 FECHAIN ATHLETIQUE CLUB 8,746 06:52
161 128 RADET MICHELE 02:17:41 V1F 12 00:50:05 00:15:46 CAP OPALE 8,716 06:53
162 134 BIGOT MARIE-CHRISTINE 02:17:43 V2F 1 00:50:07 00:00:00 NON LICENCIE 8,714 06:53
163 211 LANGAGNE GAETAN 02:17:47 SEM 61 00:50:11 00:49:06 ATHLETISME CLUB OUTREAU 8,709 06:53
164 52 PIGACHE ALEXANDRE 02:17:51 SEM 62 00:50:15 00:49:10 NON LICENCIE 8,705 06:54
165 4 SIGIEZ FABIEN 02:17:58 V1M 59 00:50:22 00:50:22 NON LICENCIE 8,698 06:54
166 90 MESSIANT ISABELLE 02:18:01 V1F 13 00:50:25 00:16:06   8,695 06:54
167 101 LENOIR JEAN-LOUIS 02:18:01 SEM 63 00:50:25 00:49:20   8,695 06:54
168 179 LEGRAND MICHELE 02:18:42 V2F 2 00:51:06 00:00:59 CALOTTERIE 8,652 06:56
169 239 VIGNOZZI ALEX 02:18:47 SEM 64 00:51:11 00:50:06 NON LICENCIE 8,647 06:56
170 76 MANCHUELLE STEPHANE 02:19:07 V1M 60 00:51:31 00:51:31 ATHLETIQUE CLUB CAPELLOIS 8,626 06:57
171 143 AVISSE SEBASTIEN 02:19:09 SEM 65 00:51:33 00:50:28 COLEMBERT 8,624 06:57
172 236 BIBBO GREGORY 02:19:23 V1M 61 00:51:47 00:51:47 NON LICENCIE 8,609 06:58
173 70 LEGRAND PHILIPPE 02:20:10 SEM 66 00:52:34 00:51:29   8,561 07:00
174 142 WALLET DOMINIQUE 02:20:26 V2M 16 00:52:50 00:44:43 COLEMBERT 8,545 07:01
175 192 POSTA JEAN-FRANCOIS 02:21:32 V2M 17 00:53:56 00:45:49 NON LICENCIE 8,479 07:05
176 28 CRETON JULIEN 02:21:59 SEM 67 00:54:23 00:53:18 NON LICENCIE 8,452 07:06
177 33 LAVIE BETTY 02:22:02 SEF 9 00:54:26 00:35:48 TOUQUET TRAIL NATURE 8,449 07:06
178 198 FLAMENT HELENE 02:22:12 SEF 10 00:54:36 00:35:58 AS SIMENCOURT 8,439 07:07
179 25 FLAMENT HUGUES 02:22:34 V2M 18 00:54:58 00:46:51 AS SIMENCOURT 8,417 07:08
180 95 ETCHEPARE JEAN-PHILIPPE 02:22:43 SEM 68 00:55:07 00:54:02 PATRIOTES DE GUINES 8,408 07:08
181 203 LEJEUNE CHARLOTTE 02:22:53 SEF 11 00:55:17 00:36:39 WIMEREUX RUNNING CLUB 8,398 07:09
182 10 DELBE PASCALE 02:22:56 V2F 3 00:55:20 00:05:13 CALOTTERIE 8,396 07:09
183 55 REMY DAVID 02:23:21 SEM 69 00:55:45 00:54:40 VIA ALEKINA 8,371 07:10
184 178 MAGERE DELPHINE 02:23:35 V1F 14 00:55:59 00:21:40 NON LICENCIE 8,358 07:11
185 32 SOLOME ESTELLE 02:23:35 V1F 15 00:55:59 00:21:40   8,358 07:11
186 41 BOUCHE ISABELLE 02:24:08 SEM 70 00:56:32 00:55:27 JAR RONCQ 8,326 07:12
187 62 BOYAVAL FLORENCE 02:24:08 SEF 12 00:56:32 00:37:54 CALOTTERIE 8,326 07:12
188 64 GRIMEAU NICOLAS 02:24:15 V1M 62 00:56:39 00:56:39 TRAIL BLARINGHEM 8,319 07:13
189 29 SCHILLE STEPHANIE 02:24:23 SEF 13 00:56:47 00:38:09 NON LICENCIE 8,311 07:13
190 237 BRIZZI ERIC 02:25:30 SEM 71 00:57:54 00:56:49 NON LICENCIE 8,247 07:16
191 155 PERROT FRANCOIS 02:25:45 ESM 4 00:58:09 00:57:36 LE DRAPEAU 8,233 07:17
192 152 CODRON STEPHANE 02:25:46 V1M 63 00:58:10 00:58:10 LE DRAPEAU 8,232 07:17
193 205 GINOLIN FRANKIE 02:25:46 V1M 64 00:58:10 00:58:10 LE DRAPEAU 8,232 07:17
194 188 SIMSOVIC GAEL 02:26:16 V1M 65 00:58:40 00:58:40 SAINT MARTIN ATHLETISME 8,204 07:19
195 8 SAINT GEORGES PHILIPPE 02:26:39 V1M 66 00:59:03 00:59:03   8,183 07:20
196 190 SIX SYLVIE 02:26:59 SEF 14 00:59:23 00:40:45 NON LICENCIE 8,164 07:21
197 13 AUBERT MAGALI 02:27:09 SEF 15 00:59:33 00:40:55   8,155 07:21
198 22 FAIT JEAN-PHILIPPE 02:27:32 V1M 67 00:59:56 00:59:56 TOUQUET TRAIL NATURE 8,134 07:23
199 240 SENECHAL MARIE-CHRISTINE 02:27:47 V2F 4 01:00:11 00:10:04 PATRIOTES DE GUINES 8,120 07:23
200 256 VASSEUR CATHIE 02:28:00 V1F 16 01:00:24 00:26:05 ATHLETIC CLUB CAPELLOIS 8,108 07:24
201 6 HUEZ LUDOVIC 02:28:04 SEM 72 01:00:28 00:59:23 HAMES BOUCRES OMNISPORT 8,104 07:24
202 175 FOURCROY ANTHONY 02:28:09 V1M 68 01:00:33 01:00:33 NON LICENCIE 8,100 07:24
203 183 BAROEN BERNARD 02:28:26 V3M 4 01:00:50 00:35:34 VAFA 8,084 07:25
204 233 DELECOURT NATHALIE 02:28:31 V1F 17 01:00:55 00:26:36 NON LICENCIE 8,080 07:26
205 234 SERGENT Florence 02:28:31 V1F 18 01:00:55 00:26:36 NON LICENCIE 8,080 07:26
206 232 DELECOUR CHRISTOPHE 02:28:32 V1M 69 01:00:56 01:00:56 ATHLETISME CLUB OUTREAU 8,079 07:26
207 235 SERGENT ALAIN 02:28:33 SEM 73 01:00:57 00:59:52 NON LICENCIE 8,078 07:26
208 102 MAGNE NATHALIE 02:30:17 V1F 19 01:02:41 00:28:22 SAINT MARTIN ATHLETISME 7,985 07:31
209 216 CARON AYMERIC 02:30:18 V1M 70 01:02:42 01:02:42 NON LICENCIE 7,984 07:31
210 163 VEILLARD EUGENE 02:30:53 V4M 1 01:03:17 00:00:00 NON LICENCIE 7,953 07:33
211 144 FORESTIER DELPHINE 02:31:08 V1F 20 01:03:32 00:29:13 COLEMBERT 7,940 07:33
212 16 THERY MARTINE 02:31:19 V2F 5 01:03:43 00:13:36 PINK LADIES 7,930 07:34
213 80 CABY SOPHIE 02:31:21 V1F 21 01:03:45 00:29:26 WIMEREUX RUNNING CLUB 7,929 07:34
214 19 NAVET LAURENT 02:31:21 V1M 71 01:03:45 01:03:45 NON LICENCIE 7,929 07:34
215 140 BULOT STEPHANE 02:31:22 SEM 74 01:03:46 01:02:41   7,928 07:34
216 31 GRESSIER DELPHINE 02:31:31 V1F 22 01:03:55 00:29:36 LE DRAPEAU 7,920 07:35
217 146 BIASSE MARIE-ODILE 02:31:31 V1F 23 01:03:55 00:29:36 COLEMBERT 7,920 07:35
218 248 MAILLOT MELANIE 02:32:02 JUF 1 01:04:26 00:00:00 ATHLETISME CLUB OUTREAU 7,893 07:36
219 249 NAVET FLORENCE 02:32:02 V1F 24 01:04:26 00:30:07 ATHLETISME CLUB OUTREAU 7,893 07:36
220 66 GIRAULT VALERIE 02:32:44 V1F 25 01:05:08 00:30:49 OPALE TRAIL NATURE 7,857 07:38
221 67 MACQUET BRUNO 02:32:44 V2M 19 01:05:08 00:57:01 OPALE TRAIL NATURE 7,857 07:38
222 122 MENIGAULT DENIS 02:34:34 V3M 5 01:06:58 00:41:42 VAFA 7,764 07:44
223 121 DUMONT AGNES 02:34:54 V2F 6 01:07:18 00:17:11 VAFA 7,747 07:45
224 91 THIEBAUT CATHY 02:35:21 V1F 26 01:07:45 00:33:26 CALOTTERIE 7,724 07:46
225 93 DAUCHEZ BRUNO 02:35:21 V2M 20 01:07:45 00:59:38 CALOTTERIE 7,724 07:46
226 59 ROCHES ANNE-SOPHIE 02:36:02 V1F 27 01:08:26 00:34:07   7,691 07:48
227 244 HERMANT PAULINE 02:36:43 SEF 16 01:09:07 00:50:29 NON LICENCIE 7,657 07:50
228 245 VEILLON FABIEN 02:36:44 SEM 75 01:09:08 01:08:03 NON LICENCIE 7,656 07:50
229 84 MALFOY ROMAIN 02:39:43 SEM 76 01:12:07 01:11:02 SAINT MARTIN ATHLETISME 7,513 07:59
230 85 MALFOY JEAN-PIERRE 02:39:49 V3M 6 01:12:13 00:46:57 SAINT MARTIN ATHLETISME 7,509 07:59
231 15 MAILLARD NADINE 02:39:58 V3F 1 01:12:22 00:00:00 PINK LADIES 7,502 08:00
232 61 CARON LYUBA 02:40:11 V3F 2 01:12:35 00:00:13 SAINT MARTIN ATHLETISME 7,491 08:01
233 17 MAGNIER BEATRICE 02:40:12 V2F 7 01:12:36 00:22:29 PINK LADIES 7,491 08:01
234 106 FAUQUET ISABELLE 02:40:25 V1F 28 01:12:49 00:38:30 NON LICENCIE 7,481 08:01
235 139 CUENOT ALBAN 02:42:11 SEM 77 01:14:35 01:13:30   7,399 08:07
236 63 GUILLERY REGINA 02:45:39 SEF 17 01:18:03 00:59:25 PLM CONFLANS 7,244 08:17
237 58 VIVIANO ANNE-SOPHIE 02:45:47 SEF 18 01:18:11 00:59:33   7,238 08:17
238 44 SCOTTE AURELIEN 02:48:51 SEM 78 01:21:15 01:20:10   7,107 08:27
239 226 SCOTTE DAVID 02:48:53 SEM 79 01:21:17 01:20:12 CG HAUBOURDIN 7,105 08:27
240 105 HAMY DANY 02:49:41 V1F 29 01:22:05 00:47:46 NON LICENCIE 7,072 08:29
241 104 MARCOURT LAURENCE 02:49:49 V1F 30 01:22:13 00:47:54 SAINT MARTIN ATHLETISME 7,066 08:29
242 86 MALVACHE DOMINIQUE 02:49:51 V1M 72 01:22:15 01:22:15 SAINT MARTIN ATHLETISME 7,065 08:30
243 83 GOSSELIN JEAN-FRANCOIS 02:49:52 V1M 73 01:22:16 01:22:16 SAINT MARTIN ATHLETISME 7,064 08:30
244 103 NEGRI PASCALE 02:49:55 V1F 31 01:22:19 00:48:00 SAINT MARTIN ATHLETISME 7,062 08:30
245 120 SORET PATRICK 02:57:11 V2M 21 01:29:35 01:21:28 COLEMBERT 6,773 08:52
246 43 DEBERDT BERNADETTE 03:21:30 V2F 8 01:53:54 01:03:47 COURIR AU MONT DES CATS 5,955 10:04
247 42 TIERCEN DOMINIQUE 03:21:31 V3M 7 01:53:55 01:28:39 COURIR AU MONT DES CATS 5,955 10:05